Time;durP1;ratioP1;P1;durP2;ratioP2;P2;SDS_P1;SDS_P2;PMS_P1;PMS_P2;Temp;Humidity;BMP_temperature;BMP_pressure;BME280_temperature;BME280_humidity;BME280_pressure;Samples;Min_cycle;Max_cycle;Signal;HPM_P1;HPM_P2
2021/08/19 00:04:53;;;;;;;3.45;2.15;;;17.50;99.90;;;;;;6770336;87;20651;-76
2021/08/19 00:14:53;;;;;;;5.47;2.80;;;17.70;99.90;;;;;;6760820;87;20201;-76
2021/08/19 00:24:54;;;;;;;4.90;2.53;;;17.50;99.90;;;;;;6761240;87;20673;-76
2021/08/19 00:34:55;;;;;;;4.43;2.37;;;17.70;99.90;;;;;;6760535;87;20202;-78
2021/08/19 00:44:55;;;;;;;3.72;2.33;;;17.70;99.90;;;;;;6763084;87;20196;-77
2021/08/19 00:54:56;;;;;;;6.82;2.20;;;17.60;99.90;;;;;;6765775;87;21216;-74
2021/08/19 01:05:41;;;;;;;5.20;2.55;;;17.60;99.90;;;;;;6782613;77;20198;-81
2021/08/19 01:15:42;;;;;;;3.25;2.30;;;17.70;99.90;;;;;;6733337;88;20379;-79
2021/08/19 01:25:43;;;;;;;3.28;2.00;;;17.60;99.90;;;;;;6736914;88;20199;-80
2021/08/19 01:35:44;;;;;;;3.37;2.20;;;17.60;99.90;;;;;;6740396;88;20189;-79
2021/08/19 01:45:46;;;;;;;4.97;2.67;;;17.70;99.90;;;;;;6738253;88;20223;-79
2021/08/19 01:55:47;;;;;;;4.25;2.58;;;17.60;99.90;;;;;;6736089;88;20244;-80
2021/08/19 02:05:48;;;;;;;4.87;2.40;;;17.60;99.90;;;;;;6736558;88;20198;-80
2021/08/19 02:15:49;;;;;;;4.85;2.85;;;17.60;99.90;;;;;;6731658;88;20224;-79
2021/08/19 02:25:49;;;;;;;3.45;2.20;;;17.50;99.90;;;;;;6732333;88;20380;-80
2021/08/19 02:35:50;;;;;;;5.22;2.60;;;17.60;99.90;;;;;;6731845;88;20680;-80
2021/08/19 02:45:51;;;;;;;6.75;3.20;;;17.30;99.90;;;;;;6735030;88;20238;-80
2021/08/19 02:55:51;;;;;;;3.62;2.45;;;17.30;99.90;;;;;;6735125;88;20212;-79
2021/08/19 03:05:52;;;;;;;4.00;2.53;;;17.20;99.90;;;;;;6737674;88;20188;-80
2021/08/19 03:15:52;;;;;;;4.60;2.47;;;17.20;99.90;;;;;;6733115;88;20209;-79
2021/08/19 03:25:53;;;;;;;6.40;2.75;;;17.20;99.90;;;;;;6730301;88;20892;-80
2021/08/19 03:35:54;;;;;;;4.15;2.55;;;17.40;99.90;;;;;;6733648;88;20253;-80
2021/08/19 03:45:55;;;;;;;4.55;2.60;;;17.20;99.90;;;;;;6733938;88;20283;-79
2021/08/19 03:55:56;;;;;;;4.82;2.40;;;17.40;99.90;;;;;;6733145;88;20196;-80
2021/08/19 04:05:56;;;;;;;4.82;2.67;;;17.40;99.90;;;;;;6734792;88;20193;-80
2021/08/19 04:15:57;;;;;;;6.72;2.67;;;17.50;99.90;;;;;;6734049;88;20196;-80
2021/08/19 04:25:58;;;;;;;6.23;2.70;;;17.40;99.90;;;;;;6729464;88;20258;-80
2021/08/19 04:35:58;;;;;;;4.30;2.60;;;17.40;99.90;;;;;;6738314;88;20279;-80
2021/08/19 04:45:59;;;;;;;4.03;2.30;;;17.30;99.90;;;;;;6728349;88;20310;-80
2021/08/19 04:56:00;;;;;;;5.10;2.42;;;17.20;99.90;;;;;;6732710;88;20600;-80
2021/08/19 05:06:00;;;;;;;3.97;2.40;;;17.40;99.90;;;;;;6732931;88;20351;-80
2021/08/19 05:16:01;;;;;;;4.47;2.50;;;17.40;99.90;;;;;;6730001;88;20532;-80
2021/08/19 05:26:02;;;;;;;5.43;2.80;;;17.60;99.90;;;;;;6732993;88;20896;-80
2021/08/19 05:36:07;;;;;;;3.92;2.62;;;17.40;99.90;;;;;;6729057;88;20277;-80
2021/08/19 05:46:08;;;;;;;4.45;2.80;;;17.50;99.90;;;;;;6732571;88;20211;-79
2021/08/19 05:56:14;;;;;;;4.28;2.55;;;17.50;99.90;;;;;;6733105;88;20735;-80
2021/08/19 06:06:17;;;;;;;4.30;2.50;;;17.50;99.90;;;;;;6732259;88;20230;-83
2021/08/19 06:16:18;;;;;;;4.87;2.67;;;17.60;99.90;;;;;;6737675;88;20176;-83
2021/08/19 06:26:19;;;;;;;4.50;2.58;;;17.70;99.90;;;;;;6735866;88;20207;-77
2021/08/19 06:36:19;;;;;;;4.07;2.78;;;17.80;99.90;;;;;;6733245;88;20237;-79
2021/08/19 06:46:20;;;;;;;3.87;2.78;;;17.90;99.90;;;;;;6728995;88;20205;-79
2021/08/19 06:56:21;;;;;;;3.85;2.60;;;18.10;99.90;;;;;;6727034;88;20669;-80
2021/08/19 07:07:03;;;;;;;4.05;2.37;;;18.30;99.90;;;;;;6721191;77;20224;-78
2021/08/19 07:17:04;;;;;;;6.80;2.55;;;18.50;99.90;;;;;;6704228;88;20610;-78
2021/08/19 07:27:05;;;;;;;6.10;2.15;;;18.60;99.90;;;;;;6708622;88;20191;-79
2021/08/19 07:37:05;;;;;;;3.45;2.30;;;18.80;99.90;;;;;;6714187;88;20201;-79
2021/08/19 07:47:06;;;;;;;3.47;2.00;;;18.90;99.90;;;;;;6713931;88;20654;-78
2021/08/19 07:57:07;;;;;;;4.25;2.20;;;19.30;99.90;;;;;;6700259;88;20217;-78
2021/08/19 08:07:07;;;;;;;3.50;1.83;;;19.60;99.90;;;;;;6699209;88;20221;-77
2021/08/19 08:17:08;;;;;;;2.55;1.80;;;19.80;99.90;;;;;;6707822;88;20238;-77
2021/08/19 08:27:08;;;;;;;2.40;1.60;;;20.00;99.90;;;;;;6701385;88;20247;-77
2021/08/19 08:37:09;;;;;;;2.87;1.40;;;20.10;99.90;;;;;;6700943;88;20635;-77
2021/08/19 08:47:13;;;;;;;2.93;1.50;;;20.30;99.90;;;;;;6701351;88;20203;-77
2021/08/19 08:57:13;;;;;;;3.77;1.70;;;20.60;99.90;;;;;;6702935;88;20301;-77
2021/08/19 09:07:14;;;;;;;4.28;2.00;;;20.70;99.90;;;;;;6700383;88;20194;-77
2021/08/19 09:17:14;;;;;;;3.70;2.12;;;20.90;99.90;;;;;;6700730;88;20591;-77
2021/08/19 09:27:17;;;;;;;4.45;2.15;;;20.90;99.90;;;;;;6704458;88;20333;-77
2021/08/19 09:37:19;;;;;;;2.97;1.80;;;21.80;99.90;;;;;;6704651;88;20645;-78
2021/08/19 09:47:34;;;;;;;3.50;1.75;;;22.20;99.90;;;;;;6700024;88;20199;-78
2021/08/19 09:57:34;;;;;;;2.87;1.60;;;22.10;99.90;;;;;;6687184;88;20190;-77
2021/08/19 10:07:35;;;;;;;4.20;2.00;;;21.70;99.90;;;;;;6694333;88;20215;-77
2021/08/19 10:17:37;;;;;;;2.65;1.65;;;22.00;99.90;;;;;;6720641;88;20657;-78
2021/08/19 10:27:38;;;;;;;3.17;2.22;;;22.90;99.90;;;;;;6710194;88;20218;-78
2021/08/19 10:37:44;;;;;;;3.47;2.00;;;22.20;99.90;;;;;;6705410;88;20258;-77
2021/08/19 10:47:45;;;;;;;3.25;1.98;;;22.30;99.90;;;;;;6704364;88;20174;-77
2021/08/19 10:57:53;;;;;;;3.00;2.03;;;22.20;99.90;;;;;;6685173;88;20216;-77
2021/08/19 11:07:58;;;;;;;2.35;1.60;;;22.30;99.90;;;;;;6686267;88;20218;-77
2021/08/19 11:17:59;;;;;;;4.00;2.12;;;22.40;99.90;;;;;;6685644;88;20202;-78
2021/08/19 11:28:10;;;;;;;3.12;2.33;;;21.90;99.90;;;;;;6682854;88;20205;-77
2021/08/19 11:38:22;;;;;;;3.25;2.10;;;21.60;99.90;;;;;;6669837;89;20209;-78
2021/08/19 11:48:23;;;;;;;1.92;0.93;;;21.60;99.90;;;;;;6665220;89;20714;-77
2021/08/19 11:58:26;;;;;;;1.05;0.60;;;21.40;99.90;;;;;;6668165;89;20215;-77
2021/08/19 12:08:28;;;;;;;1.58;0.82;;;21.60;99.90;;;;;;6686569;88;20578;-77
2021/08/19 12:18:28;;;;;;;1.50;0.60;;;21.30;99.90;;;;;;6701451;88;20763;-77
2021/08/19 12:28:29;;;;;;;4.93;0.70;;;21.00;99.90;;;;;;6703395;88;20200;-77
2021/08/19 12:38:29;;;;;;;1.02;0.70;;;20.80;99.90;;;;;;6701487;88;20549;-78
2021/08/19 12:48:30;;;;;;;1.20;0.70;;;21.20;99.90;;;;;;6702210;88;20211;-77
2021/08/19 12:58:30;;;;;;;1.45;0.65;;;21.20;99.90;;;;;;6707923;88;20660;-77
2021/08/19 13:09:12;;;;;;;1.50;0.90;;;21.30;99.90;;;;;;6718585;77;20200;-78
2021/08/19 13:19:13;;;;;;;2.80;0.75;;;21.30;99.90;;;;;;6715688;88;20209;-76
2021/08/19 13:29:13;;;;;;;1.20;0.70;;;21.20;99.90;;;;;;6715613;88;20218;-76
2021/08/19 13:39:14;;;;;;;2.42;0.90;;;21.00;99.90;;;;;;6715193;88;20251;-77
2021/08/19 13:49:15;;;;;;;1.80;1.00;;;20.70;99.90;;;;;;6714928;88;20647;-77
2021/08/19 13:59:19;;;;;;;2.03;1.23;;;20.60;99.90;;;;;;6715864;88;20524;-77
2021/08/19 14:09:19;;;;;;;3.00;1.35;;;20.80;99.90;;;;;;6714674;88;20193;-77
2021/08/19 14:19:20;;;;;;;2.67;1.40;;;20.50;99.90;;;;;;6714795;88;20318;-77
2021/08/19 14:29:20;;;;;;;2.30;0.98;;;20.70;99.90;;;;;;6714856;88;20233;-77
2021/08/19 14:39:21;;;;;;;1.85;1.20;;;21.10;99.90;;;;;;6714305;88;20675;-77
2021/08/19 14:49:22;;;;;;;2.53;1.30;;;20.90;99.90;;;;;;6715363;88;20576;-77
2021/08/19 14:59:22;;;;;;;1.87;0.97;;;21.20;99.90;;;;;;6714154;88;20308;-77
2021/08/19 15:09:24;;;;;;;1.85;0.90;;;20.90;99.90;;;;;;6714057;88;20535;-77
2021/08/19 15:19:25;;;;;;;1.95;1.30;;;20.30;99.90;;;;;;6713712;88;20185;-76
2021/08/19 15:29:28;;;;;;;1.70;1.27;;;19.80;99.90;;;;;;6714130;88;20205;-76
2021/08/19 15:39:28;;;;;;;2.75;1.40;;;20.00;99.90;;;;;;6714112;88;20264;-78
2021/08/19 15:49:29;;;;;;;2.80;1.30;;;20.30;99.90;;;;;;6714832;88;20230;-76
2021/08/19 15:59:29;;;;;;;2.55;1.73;;;20.00;99.90;;;;;;6713872;88;20200;-76
2021/08/19 16:09:31;;;;;;;3.20;1.70;;;18.80;99.90;;;;;;6713581;88;20767;-77
2021/08/19 16:19:32;;;;;;;2.30;1.52;;;18.80;99.90;;;;;;6713609;88;20211;-76
2021/08/19 16:29:33;;;;;;;3.20;1.50;;;18.80;99.90;;;;;;6713650;88;20234;-76
2021/08/19 16:39:34;;;;;;;2.55;1.40;;;19.00;99.90;;;;;;6715779;88;20519;-78
2021/08/19 16:49:34;;;;;;;2.33;1.40;;;18.90;99.90;;;;;;6713363;88;20206;-75
2021/08/19 16:59:35;;;;;;;3.37;1.83;;;18.60;99.90;;;;;;6713178;88;20200;-76
2021/08/19 17:09:37;;;;;;;3.83;2.70;;;18.00;99.90;;;;;;6713063;88;20222;-77
2021/08/19 17:19:38;;;;;;;3.30;2.60;;;17.90;99.90;;;;;;6713268;88;20199;-78
2021/08/19 17:29:38;;;;;;;3.33;2.28;;;17.80;99.90;;;;;;6712444;88;20196;-78
2021/08/19 17:39:39;;;;;;;3.62;2.60;;;17.70;99.90;;;;;;6713189;88;20755;-77
2021/08/19 17:49:39;;;;;;;3.55;2.10;;;17.60;99.90;;;;;;6714925;88;20182;-76
2021/08/19 17:59:40;;;;;;;2.58;1.75;;;17.70;99.90;;;;;;6714711;88;20211;-78
2021/08/19 18:09:40;;;;;;;2.60;1.75;;;17.90;99.90;;;;;;6714887;88;20221;-77
2021/08/19 18:19:42;;;;;;;6.57;1.70;;;17.90;99.90;;;;;;6714451;88;20224;-77
2021/08/19 18:29:42;;;;;;;3.85;1.87;;;17.70;99.90;;;;;;6714678;88;20642;-77
2021/08/19 18:39:43;;;;;;;3.62;1.90;;;17.70;99.90;;;;;;6714898;88;20207;-77
2021/08/19 18:49:44;;;;;;;4.20;2.10;;;17.90;99.90;;;;;;6715071;88;20201;-77
2021/08/19 18:59:44;;;;;;;3.83;2.17;;;17.70;99.90;;;;;;6715993;88;20559;-78
2021/08/19 19:09:45;;;;;;;3.40;2.40;;;17.70;99.90;;;;;;6720156;77;20761;-78
2021/08/19 19:19:45;;;;;;;3.42;1.98;;;17.60;99.90;;;;;;6722714;88;20197;-78
2021/08/19 19:29:46;;;;;;;3.37;2.20;;;17.50;99.90;;;;;;6733748;88;20276;-78
2021/08/19 19:39:46;;;;;;;4.50;1.93;;;17.50;99.90;;;;;;6741474;88;20179;-78
2021/08/19 19:49:47;;;;;;;4.37;2.60;;;17.40;99.90;;;;;;6736977;88;20509;-78
2021/08/19 19:59:47;;;;;;;3.62;2.83;;;17.40;99.90;;;;;;6741331;88;20196;-80
2021/08/19 20:09:48;;;;;;;4.97;2.80;;;17.50;99.90;;;;;;6741534;88;20256;-78
2021/08/19 20:19:48;;;;;;;4.72;2.67;;;17.40;99.90;;;;;;6738829;88;20706;-78
2021/08/19 20:29:49;;;;;;;3.78;2.53;;;17.30;99.90;;;;;;6742213;88;20761;-78
2021/08/19 20:39:50;;;;;;;3.42;2.92;;;17.50;99.90;;;;;;6741532;88;20232;-78
2021/08/19 20:49:50;;;;;;;4.20;3.00;;;17.50;99.90;;;;;;6739913;88;20196;-78
2021/08/19 20:59:51;;;;;;;3.93;2.57;;;17.40;99.90;;;;;;6737358;88;20188;-78
2021/08/19 21:09:51;;;;;;;5.05;2.70;;;17.40;99.90;;;;;;6744313;88;20696;-79
2021/08/19 21:19:52;;;;;;;3.60;2.33;;;17.40;99.90;;;;;;6744637;88;20675;-78
2021/08/19 21:29:53;;;;;;;5.10;2.60;;;17.20;99.90;;;;;;6742610;88;20200;-78
2021/08/19 21:39:53;;;;;;;5.60;2.90;;;17.20;99.90;;;;;;6742883;88;20275;-78
2021/08/19 21:49:54;;;;;;;3.60;2.47;;;17.20;99.90;;;;;;6741930;88;20246;-78
2021/08/19 21:59:54;;;;;;;5.22;3.08;;;17.10;99.90;;;;;;6723439;88;20182;-78
2021/08/19 22:09:55;;;;;;;4.28;3.08;;;16.90;99.90;;;;;;6723412;88;20205;-78
2021/08/19 22:19:55;;;;;;;4.60;3.20;;;16.80;99.90;;;;;;6722894;88;20284;-78
2021/08/19 22:29:57;;;;;;;6.93;3.55;;;16.50;99.90;;;;;;6725141;88;20237;-79
2021/08/19 22:39:57;;;;;;;5.85;3.70;;;16.40;99.90;;;;;;6725374;88;20227;-78
2021/08/19 22:49:58;;;;;;;5.82;3.83;;;16.10;99.90;;;;;;6723398;88;21062;-78
2021/08/19 22:59:59;;;;;;;6.40;3.83;;;16.00;99.90;;;;;;6724469;88;20351;-78
2021/08/19 23:09:59;;;;;;;7.55;4.18;;;15.90;99.90;;;;;;6722799;88;20330;-78
2021/08/19 23:20:00;;;;;;;7.40;3.90;;;16.00;99.90;;;;;;6722315;88;20212;-79
2021/08/19 23:30:01;;;;;;;4.45;3.22;;;15.80;99.90;;;;;;6722264;88;20189;-78
2021/08/19 23:40:01;;;;;;;6.85;3.72;;;15.80;99.90;;;;;;6721329;88;20211;-78
2021/08/19 23:50:04;;;;;;;6.20;3.63;;;15.70;99.90;;;;;;6720099;88;20221;-78
